createdAt,value
2023-04-13T00:00:13.100Z,34.00
2023-04-13T00:01:13.058Z,33.30
2023-04-13T00:02:13.116Z,36.40
2023-04-13T00:03:13.225Z,36.80
2023-04-13T00:04:14.046Z,36.70
2023-04-13T00:05:13.033Z,33.90
2023-04-13T00:06:12.974Z,33.40
2023-04-13T00:07:12.944Z,39.20
2023-04-13T00:08:12.952Z,38.50
2023-04-13T00:09:12.918Z,33.70
2023-04-13T00:10:12.914Z,32.40
2023-04-13T00:11:12.905Z,31.30
2023-04-13T00:12:12.849Z,35.30
2023-04-13T00:13:12.835Z,29.40
2023-04-13T00:14:13.570Z,31.60
2023-04-13T00:15:12.822Z,31.00
2023-04-13T00:16:12.817Z,32.70
2023-04-13T00:17:12.750Z,26.80
2023-04-13T00:18:13.746Z,29.60
2023-04-13T00:19:12.723Z,29.20
2023-04-13T00:20:12.725Z,31.30
2023-04-13T00:21:12.688Z,29.30
2023-04-13T00:22:12.673Z,26.70
2023-04-13T00:23:12.643Z,27.90
2023-04-13T00:24:12.628Z,29.00
2023-04-13T00:25:12.636Z,27.00
2023-04-13T00:26:12.591Z,28.00
2023-04-13T00:27:12.572Z,28.00
2023-04-13T00:28:12.554Z,29.30
2023-04-13T00:29:12.535Z,28.20
2023-04-13T00:30:12.543Z,26.20
2023-04-13T00:31:12.515Z,28.60
2023-04-13T00:32:12.489Z,29.20
2023-04-13T00:33:12.486Z,24.30
2023-04-13T00:34:12.445Z,22.50
2023-04-13T00:35:12.447Z,27.30
2023-04-13T00:36:46.030Z,22.70
2023-04-13T00:37:47.484Z,24.70
2023-04-13T00:38:12.378Z,29.00
2023-04-13T00:39:12.360Z,22.90
2023-04-13T00:40:12.371Z,24.30
2023-04-13T00:41:12.327Z,25.10
2023-04-13T00:42:12.307Z,24.00
2023-04-13T00:43:12.364Z,22.10
2023-04-13T00:44:12.266Z,20.50
2023-04-13T00:45:12.275Z,20.30
2023-04-13T00:46:12.279Z,18.90
2023-04-13T00:47:12.220Z,20.50
2023-04-13T00:48:45.789Z,17.20
2023-04-13T00:49:12.176Z,21.60
2023-04-13T00:50:12.184Z,16.80
2023-04-13T00:51:14.162Z,17.70
2023-04-13T00:52:12.128Z,15.20
2023-04-13T00:53:12.132Z,15.30
2023-04-13T00:54:45.776Z,14.30
2023-04-13T00:55:12.104Z,12.90
2023-04-13T00:56:12.059Z,14.90
2023-04-13T00:57:12.042Z,14.60
2023-04-13T00:58:12.031Z,13.20
2023-04-13T00:59:45.667Z,15.00
2023-04-13T01:00:11.992Z,14.00
2023-04-13T01:01:12.010Z,14.10
2023-04-13T01:02:12.005Z,12.90
2023-04-13T01:03:12.095Z,13.70
2023-04-13T01:04:11.978Z,12.60
2023-04-13T01:05:11.927Z,11.80
2023-04-13T01:06:11.884Z,13.50
2023-04-13T01:07:45.454Z,12.10
2023-04-13T01:08:11.846Z,11.10
2023-04-13T01:09:11.836Z,10.30
2023-04-13T01:10:12.731Z,11.30
2023-04-13T01:11:45.519Z,11.70
2023-04-13T01:12:11.785Z,9.10
2023-04-13T01:13:11.786Z,10.20
2023-04-13T01:14:11.758Z,10.20
2023-04-13T01:15:11.761Z,10.40
2023-04-13T01:16:11.754Z,9.60
2023-04-13T01:17:11.693Z,8.70
2023-04-13T01:18:11.686Z,9.10
2023-04-13T01:19:11.657Z,8.40
2023-04-13T01:20:11.653Z,9.20
2023-04-13T01:21:12.623Z,10.30
2023-04-13T01:22:11.605Z,8.10
2023-04-13T01:23:11.585Z,9.50
2023-04-13T01:24:11.569Z,9.20
2023-04-13T01:25:11.573Z,8.10
2023-04-13T01:26:11.531Z,9.20
2023-04-13T01:27:11.511Z,9.70
2023-04-13T01:28:11.495Z,8.20
2023-04-13T01:29:11.477Z,8.40
2023-04-13T01:30:11.485Z,7.60
2023-04-13T01:31:11.626Z,6.20
2023-04-13T01:32:11.424Z,7.90
2023-04-13T01:33:11.456Z,9.10
2023-04-13T01:34:11.382Z,8.10
2023-04-13T01:35:11.391Z,6.50
2023-04-13T01:36:11.346Z,8.00
2023-04-13T01:37:11.342Z,8.30
2023-04-13T01:38:11.310Z,8.90
2023-04-13T01:39:11.289Z,5.90
2023-04-13T01:40:11.338Z,5.30
2023-04-13T01:41:11.251Z,6.10
2023-04-13T01:42:11.243Z,4.60
2023-04-13T01:43:11.267Z,5.50
2023-04-13T01:44:11.204Z,7.30
2023-04-13T01:45:11.242Z,5.60
2023-04-13T01:46:11.192Z,6.60
2023-04-13T01:47:11.148Z,6.60
2023-04-13T01:48:11.139Z,5.90
2023-04-13T01:49:11.112Z,7.00
2023-04-13T01:50:11.098Z,5.70
2023-04-13T01:51:11.295Z,5.10
2023-04-13T01:52:11.113Z,3.20
2023-04-13T01:53:11.088Z,7.30
2023-04-13T01:54:11.055Z,4.30
2023-04-13T01:55:11.023Z,4.10
2023-04-13T01:56:11.013Z,5.90
2023-04-13T01:57:10.962Z,4.00
2023-04-13T01:58:11.774Z,5.80
2023-04-13T01:59:11.732Z,6.90
2023-04-13T02:00:10.936Z,6.80
2023-04-13T02:01:10.972Z,5.10
2023-04-13T02:02:10.888Z,4.90
2023-04-13T02:03:10.916Z,4.90
2023-04-13T02:04:11.965Z,5.70
2023-04-13T02:05:10.854Z,6.00
2023-04-13T02:06:10.843Z,3.40
2023-04-13T02:07:10.780Z,7.20
2023-04-13T02:08:10.758Z,7.50
2023-04-13T02:09:10.742Z,7.40
2023-04-13T02:10:10.724Z,7.20
2023-04-13T02:11:11.270Z,5.90
2023-04-13T02:12:10.688Z,5.90
2023-04-13T02:13:10.668Z,5.10
2023-04-13T02:14:10.650Z,6.10
2023-04-13T02:15:10.631Z,6.10
2023-04-13T02:16:10.650Z,4.20
2023-04-13T02:17:10.596Z,4.90
2023-04-13T02:18:10.599Z,4.90
2023-04-13T02:19:13.436Z,5.20
2023-04-13T02:20:10.674Z,6.20
2023-04-13T02:21:10.562Z,5.30
2023-04-13T02:22:10.503Z,5.00
2023-04-13T02:23:10.486Z,6.90
2023-04-13T02:24:10.474Z,6.30
2023-04-13T02:25:10.447Z,4.70
2023-04-13T02:26:10.483Z,3.80
2023-04-13T02:27:10.424Z,4.80
2023-04-13T02:28:10.394Z,4.10
2023-04-13T02:29:10.379Z,5.30
2023-04-13T02:30:10.362Z,4.70
2023-04-13T02:31:10.377Z,4.90
2023-04-13T02:32:10.486Z,4.00
2023-04-13T02:33:10.325Z,3.10
2023-04-13T02:34:10.296Z,7.90
2023-04-13T02:35:10.273Z,5.50
2023-04-13T02:36:10.281Z,4.20
2023-04-13T02:37:10.242Z,4.10
2023-04-13T02:38:10.229Z,3.90
2023-04-13T02:39:10.203Z,4.60
2023-04-13T02:40:10.183Z,3.30
2023-04-13T02:41:10.189Z,5.40
2023-04-13T02:42:10.149Z,4.10
2023-04-13T02:43:10.126Z,5.00
2023-04-13T02:44:10.108Z,4.30
2023-04-13T02:45:10.648Z,4.40
2023-04-13T02:46:10.123Z,2.70
2023-04-13T02:47:10.053Z,2.80
2023-04-13T02:48:10.035Z,3.70
2023-04-13T02:49:10.017Z,4.20
2023-04-13T02:50:09.997Z,4.40
2023-04-13T02:51:10.004Z,3.60
2023-04-13T02:52:09.962Z,5.30
2023-04-13T02:53:09.952Z,2.90
2023-04-13T02:54:09.931Z,5.00
2023-04-13T02:55:09.928Z,6.40
2023-04-13T02:56:09.914Z,4.90
2023-04-13T02:57:09.880Z,4.20
2023-04-13T02:58:09.853Z,4.80
2023-04-13T02:59:09.842Z,4.30
2023-04-13T03:00:10.716Z,4.40
2023-04-13T03:01:10.676Z,2.50
2023-04-13T03:02:10.702Z,3.00
2023-04-13T03:03:09.818Z,3.20
2023-04-13T03:04:10.653Z,4.00
2023-04-13T03:05:09.717Z,5.40
2023-04-13T03:06:09.747Z,4.70
2023-04-13T03:07:10.688Z,3.00
2023-04-13T03:08:09.664Z,4.40
2023-04-13T03:09:09.672Z,5.30
2023-04-13T03:10:10.753Z,3.40
2023-04-13T03:11:09.660Z,4.60
2023-04-13T03:12:10.587Z,3.90
2023-04-13T03:13:09.572Z,5.30
2023-04-13T03:14:09.553Z,2.30
2023-04-13T03:15:09.561Z,4.20
2023-04-13T03:16:09.518Z,3.20
2023-04-13T03:17:09.542Z,4.10
2023-04-13T03:18:09.480Z,3.60
2023-04-13T03:19:09.474Z,3.00
2023-04-13T03:20:09.494Z,4.90
2023-04-13T03:21:09.424Z,5.80
2023-04-13T03:22:09.406Z,3.30
2023-04-13T03:23:09.399Z,4.10
2023-04-13T03:24:42.944Z,3.30
2023-04-13T03:25:09.385Z,5.00
2023-04-13T03:26:43.017Z,2.70
2023-04-13T03:27:09.354Z,4.60
2023-04-13T03:28:09.324Z,4.20
2023-04-13T03:29:09.292Z,5.50
2023-04-13T03:30:09.334Z,2.90
2023-04-13T03:31:09.283Z,3.60
2023-04-13T03:32:09.234Z,2.40
2023-04-13T03:33:09.230Z,3.40
2023-04-13T03:34:42.808Z,3.10
2023-04-13T03:35:09.216Z,3.10
2023-04-13T03:36:09.200Z,4.10
2023-04-13T03:37:09.175Z,4.30
2023-04-13T03:38:09.138Z,3.60
2023-04-13T03:39:09.187Z,4.60
2023-04-13T03:40:09.111Z,4.70
2023-04-13T03:41:09.119Z,3.90
2023-04-13T03:42:09.060Z,3.80
2023-04-13T03:43:09.061Z,4.00
2023-04-13T03:44:09.029Z,4.10
2023-04-13T03:45:09.029Z,4.80
2023-04-13T03:46:09.000Z,3.60
2023-04-13T03:47:08.971Z,3.40
2023-04-13T03:48:08.949Z,3.70
2023-04-13T03:49:42.520Z,2.70
2023-04-13T03:50:08.948Z,4.30
2023-04-13T03:51:08.908Z,2.70
2023-04-13T03:52:08.885Z,4.10
2023-04-13T03:53:08.892Z,3.40
2023-04-13T03:54:08.861Z,4.00
2023-04-13T03:55:08.891Z,4.50
2023-04-13T03:56:08.812Z,4.70
2023-04-13T03:57:08.810Z,4.50
2023-04-13T03:58:08.764Z,4.40
2023-04-13T03:59:08.746Z,8.00
2023-04-13T04:00:08.754Z,4.90
2023-04-13T04:01:08.706Z,4.30
2023-04-13T04:02:08.747Z,7.10
2023-04-13T04:03:08.743Z,4.80
2023-04-13T04:04:08.731Z,6.80
2023-04-13T04:05:08.688Z,4.20
2023-04-13T04:06:08.616Z,4.50
2023-04-13T04:07:08.599Z,5.90
2023-04-13T04:08:08.572Z,4.20
2023-04-13T04:09:08.555Z,4.80
2023-04-13T04:10:42.170Z,4.60
2023-04-13T04:11:42.130Z,6.60
2023-04-13T04:12:42.093Z,3.60
2023-04-13T04:13:42.114Z,6.00
2023-04-13T04:14:08.485Z,3.70
2023-04-13T04:15:42.118Z,5.70
2023-04-13T04:16:42.163Z,7.50
2023-04-13T04:17:42.042Z,3.20
2023-04-13T04:18:42.019Z,3.60
2023-04-13T04:19:42.004Z,5.30
2023-04-13T04:20:41.952Z,4.60
2023-04-13T04:21:41.994Z,3.90
2023-04-13T04:22:08.373Z,4.30
2023-04-13T04:23:08.349Z,5.10
2023-04-13T04:24:08.330Z,7.70
2023-04-13T04:25:08.339Z,3.90
2023-04-13T04:26:41.875Z,4.40
2023-04-13T04:27:08.278Z,5.20
2023-04-13T04:28:08.261Z,3.70
2023-04-13T04:29:08.251Z,4.90
2023-04-13T04:30:08.251Z,3.80
2023-04-13T04:31:08.201Z,5.70
2023-04-13T04:32:08.289Z,2.70
2023-04-13T04:33:08.166Z,3.50
2023-04-13T04:34:08.154Z,4.20
2023-04-13T04:35:08.161Z,4.50
2023-04-13T04:36:08.111Z,4.40
2023-04-13T04:37:19.495Z,4.60
2023-04-13T04:38:10.077Z,3.60
2023-04-13T04:39:08.052Z,3.80
2023-04-13T04:40:08.065Z,5.40
2023-04-13T04:41:08.017Z,4.70
2023-04-13T04:42:08.001Z,4.30
2023-04-13T04:43:08.004Z,5.80
2023-04-13T04:44:08.008Z,4.60
2023-04-13T04:45:07.966Z,5.60
2023-04-13T04:46:08.015Z,4.70
2023-04-13T04:47:07.904Z,3.90
2023-04-13T04:48:07.967Z,5.90
2023-04-13T04:49:07.866Z,3.60
2023-04-13T04:50:07.895Z,3.40
2023-04-13T04:51:07.825Z,4.40
2023-04-13T04:52:07.817Z,4.10
2023-04-13T04:53:07.788Z,7.30
2023-04-13T04:54:07.778Z,4.10
2023-04-13T04:55:07.792Z,4.20
2023-04-13T04:56:07.731Z,2.90
2023-04-13T04:57:07.713Z,4.50
2023-04-13T04:58:07.691Z,4.20
2023-04-13T04:59:08.671Z,4.50
2023-04-13T05:00:07.660Z,5.20
2023-04-13T05:01:07.838Z,4.50
2023-04-13T05:02:07.692Z,4.30
2023-04-13T05:03:07.649Z,4.50
2023-04-13T05:04:07.583Z,5.50
2023-04-13T05:05:07.618Z,5.20
2023-04-13T05:06:07.573Z,5.70
2023-04-13T05:07:07.525Z,5.30
2023-04-13T05:08:07.509Z,5.10
2023-04-13T05:09:07.495Z,4.20
2023-04-13T05:10:07.490Z,4.60
2023-04-13T05:11:07.475Z,6.30
2023-04-13T05:12:07.439Z,4.40
2023-04-13T05:13:07.417Z,4.30
2023-04-13T05:14:07.397Z,4.00
2023-04-13T05:15:07.384Z,6.80
2023-04-13T05:16:07.428Z,6.90
2023-04-13T05:17:07.352Z,5.00
2023-04-13T05:18:07.320Z,1.80
2023-04-13T05:19:07.309Z,6.70
2023-04-13T05:20:07.301Z,5.70
2023-04-13T05:21:07.296Z,4.80
2023-04-13T05:22:07.252Z,3.40
2023-04-13T05:23:07.242Z,5.00
2023-04-13T05:24:07.212Z,3.40
2023-04-13T05:25:07.196Z,3.80
2023-04-13T05:26:07.202Z,4.10
2023-04-13T05:27:07.164Z,4.40
2023-04-13T05:28:07.141Z,6.90
2023-04-13T05:29:07.129Z,6.80
2023-04-13T05:30:07.108Z,3.60
2023-04-13T05:31:07.143Z,4.20
2023-04-13T05:32:07.370Z,6.30
2023-04-13T05:33:07.112Z,6.50
2023-04-13T05:34:07.038Z,4.50
2023-04-13T05:35:07.016Z,3.00
2023-04-13T05:36:07.030Z,3.90
2023-04-13T05:37:06.978Z,4.90
2023-04-13T05:38:06.960Z,5.20
2023-04-13T05:39:06.941Z,4.50
2023-04-13T05:40:06.920Z,6.70
2023-04-13T05:41:06.925Z,5.00
2023-04-13T05:42:06.894Z,6.20
2023-04-13T05:43:06.879Z,5.40
2023-04-13T05:44:06.858Z,5.90
2023-04-13T05:45:06.829Z,6.00
2023-04-13T05:46:06.880Z,6.00
2023-04-13T05:47:06.793Z,4.80
2023-04-13T05:48:06.787Z,6.10
2023-04-13T05:49:06.755Z,5.70
2023-04-13T05:50:06.743Z,4.60
2023-04-13T05:51:06.748Z,5.70
2023-04-13T05:52:06.691Z,8.80
2023-04-13T05:53:07.687Z,6.00
2023-04-13T05:54:06.670Z,4.30
2023-04-13T05:55:06.646Z,3.40
2023-04-13T05:56:06.648Z,6.10
2023-04-13T05:57:06.605Z,4.80
2023-04-13T05:58:06.584Z,5.90
2023-04-13T05:59:06.568Z,5.70
2023-04-13T06:00:06.554Z,5.90
2023-04-13T06:01:06.558Z,6.20
2023-04-13T06:02:06.615Z,2.90
2023-04-13T06:03:06.595Z,4.70
2023-04-13T06:04:06.615Z,3.40
2023-04-13T06:05:06.509Z,3.90
2023-04-13T06:06:06.472Z,4.80
2023-04-13T06:07:06.423Z,6.40
2023-04-13T06:08:06.401Z,4.00
2023-04-13T06:09:06.408Z,6.40
2023-04-13T06:10:06.390Z,4.50
2023-04-13T06:11:06.385Z,4.40
2023-04-13T06:12:06.342Z,4.10
2023-04-13T06:13:06.327Z,3.60
2023-04-13T06:14:06.366Z,8.50
2023-04-13T06:15:06.322Z,4.10
2023-04-13T06:16:06.280Z,5.10
2023-04-13T06:17:06.301Z,3.90
2023-04-13T06:18:06.304Z,5.40
2023-04-13T06:19:06.238Z,4.20
2023-04-13T06:20:06.231Z,4.80
2023-04-13T06:21:06.184Z,9.20
2023-04-13T06:22:06.159Z,7.10
2023-04-13T06:23:06.142Z,3.70
2023-04-13T06:24:06.158Z,5.70
2023-04-13T06:25:06.147Z,5.70
2023-04-13T06:26:06.161Z,4.30
2023-04-13T06:27:06.076Z,4.90
2023-04-13T06:28:06.059Z,6.00
2023-04-13T06:29:06.066Z,5.30
2023-04-13T06:30:06.027Z,3.50
2023-04-13T06:31:06.087Z,4.60
2023-04-13T06:32:05.988Z,4.30
2023-04-13T06:33:05.970Z,8.00
2023-04-13T06:34:05.995Z,6.80
2023-04-13T06:35:05.936Z,6.70
2023-04-13T06:36:05.946Z,5.90
2023-04-13T06:37:05.901Z,5.80
2023-04-13T06:38:05.901Z,7.60
2023-04-13T06:39:05.875Z,4.90
2023-04-13T06:40:05.848Z,7.40
2023-04-13T06:41:05.854Z,7.30
2023-04-13T06:42:05.816Z,6.40
2023-04-13T06:43:08.953Z,6.10
2023-04-13T06:44:06.790Z,5.80
2023-04-13T06:45:05.800Z,5.10
2023-04-13T06:46:05.794Z,6.20
2023-04-13T06:47:05.752Z,3.80
2023-04-13T06:48:05.781Z,4.90
2023-04-13T06:49:05.702Z,4.80
2023-04-13T06:50:05.718Z,6.30
2023-04-13T06:51:05.669Z,5.00
2023-04-13T06:52:05.653Z,5.00
2023-04-13T06:53:05.644Z,4.90
2023-04-13T06:54:05.617Z,3.00
2023-04-13T06:55:05.622Z,4.20
2023-04-13T06:56:05.571Z,4.00
2023-04-13T06:57:05.558Z,6.20
2023-04-13T06:58:05.532Z,5.60
2023-04-13T06:59:05.927Z,4.40
2023-04-13T07:00:06.837Z,5.40
2023-04-13T07:01:05.511Z,6.00
2023-04-13T07:02:05.510Z,6.90
2023-04-13T07:03:05.627Z,4.00
2023-04-13T07:04:05.474Z,6.60
2023-04-13T07:05:05.472Z,6.60
2023-04-13T07:06:05.361Z,3.60
2023-04-13T07:07:05.345Z,7.30
2023-04-13T07:08:05.330Z,6.30
2023-04-13T07:09:05.304Z,5.70
2023-04-13T07:10:05.301Z,6.40
2023-04-13T07:11:05.259Z,6.50
2023-04-13T07:12:05.233Z,6.80
2023-04-13T07:13:05.211Z,4.50
2023-04-13T07:14:05.191Z,6.10
2023-04-13T07:15:05.197Z,4.60
2023-04-13T07:16:05.345Z,4.60
2023-04-13T07:17:05.126Z,5.50
2023-04-13T07:18:05.181Z,5.10
2023-04-13T07:19:05.092Z,6.10
2023-04-13T07:20:05.095Z,4.30
2023-04-13T07:21:05.064Z,4.60
2023-04-13T07:22:05.050Z,7.90
2023-04-13T07:23:05.014Z,5.40
2023-04-13T07:24:04.999Z,6.60
2023-04-13T07:25:05.004Z,4.70
2023-04-13T07:26:04.959Z,7.70
2023-04-13T07:27:04.947Z,5.30
2023-04-13T07:28:04.946Z,7.30
2023-04-13T07:29:04.907Z,7.20
2023-04-13T07:30:04.930Z,5.20
2023-04-13T07:31:04.921Z,4.50
2023-04-13T07:32:04.843Z,7.10
2023-04-13T07:33:04.841Z,3.50
2023-04-13T07:34:04.812Z,6.40
2023-04-13T07:35:04.820Z,5.00
2023-04-13T07:36:04.775Z,4.50
2023-04-13T07:37:04.768Z,4.90
2023-04-13T07:38:04.750Z,6.40
2023-04-13T07:39:04.726Z,8.50
2023-04-13T07:40:04.725Z,6.00
2023-04-13T07:41:04.687Z,6.80
2023-04-13T07:42:04.688Z,4.80
2023-04-13T07:43:04.679Z,3.80
2023-04-13T07:44:04.642Z,5.90
2023-04-13T07:45:04.667Z,5.60
2023-04-13T07:46:04.634Z,4.50
2023-04-13T07:47:04.600Z,5.50
2023-04-13T07:48:04.612Z,7.00
2023-04-13T07:49:04.553Z,4.80
2023-04-13T07:50:04.566Z,5.00
2023-04-13T07:51:04.511Z,4.90
2023-04-13T07:52:04.494Z,5.00
2023-04-13T07:53:04.480Z,6.30
2023-04-13T07:54:04.454Z,7.10
2023-04-13T07:55:04.470Z,6.90
2023-04-13T07:56:04.440Z,8.20
2023-04-13T07:57:04.409Z,5.00
2023-04-13T07:58:04.384Z,6.70
2023-04-13T07:59:04.372Z,5.40
2023-04-13T08:00:04.383Z,6.70
2023-04-13T08:01:04.342Z,3.80
2023-04-13T08:02:04.372Z,5.70
2023-04-13T08:03:04.470Z,9.10
2023-04-13T08:04:04.398Z,5.80
2023-04-13T08:05:04.382Z,6.90
2023-04-13T08:06:04.257Z,6.70
2023-04-13T08:07:04.243Z,5.90
2023-04-13T08:08:04.222Z,4.70
2023-04-13T08:09:04.206Z,8.30
2023-04-13T08:10:04.240Z,4.60
2023-04-13T08:11:04.179Z,6.00
2023-04-13T08:12:04.159Z,5.10
2023-04-13T08:13:04.147Z,5.20
2023-04-13T08:14:04.121Z,4.90
2023-04-13T08:15:04.152Z,3.40
2023-04-13T08:16:04.145Z,7.50
2023-04-13T08:17:04.211Z,7.30
2023-04-13T08:18:04.106Z,3.80
2023-04-13T08:19:04.046Z,4.50
2023-04-13T08:20:04.054Z,4.00
2023-04-13T08:21:04.004Z,5.00
2023-04-13T08:22:03.984Z,5.60
2023-04-13T08:23:03.972Z,5.00
2023-04-13T08:24:03.961Z,3.80
2023-04-13T08:25:03.956Z,6.80
2023-04-13T08:26:03.925Z,5.70
2023-04-13T08:27:03.926Z,5.50
2023-04-13T08:28:03.884Z,4.20
2023-04-13T08:29:03.876Z,5.40
2023-04-13T08:30:03.875Z,4.50
2023-04-13T08:31:03.833Z,5.60
2023-04-13T08:32:03.849Z,7.00
2023-04-13T08:33:03.830Z,5.70
2023-04-13T08:34:03.783Z,5.00
2023-04-13T08:35:03.790Z,4.70
2023-04-13T08:36:03.761Z,5.20
2023-04-13T08:37:04.782Z,5.10
2023-04-13T08:38:03.711Z,5.30
2023-04-13T08:39:03.693Z,6.20
2023-04-13T08:40:03.697Z,5.20
2023-04-13T08:41:03.658Z,4.50
2023-04-13T08:42:03.637Z,4.40
2023-04-13T08:43:03.615Z,3.50
2023-04-13T08:44:03.597Z,5.30
2023-04-13T08:45:03.608Z,3.20
2023-04-13T08:46:03.611Z,4.40
2023-04-13T08:47:03.556Z,3.50
2023-04-13T08:48:03.637Z,3.90
2023-04-13T08:49:03.518Z,4.20
2023-04-13T08:50:03.536Z,6.60
2023-04-13T08:51:03.530Z,4.80
2023-04-13T08:52:03.472Z,4.30
2023-04-13T08:53:03.467Z,3.10
2023-04-13T08:54:03.426Z,4.30
2023-04-13T08:55:03.434Z,4.50
2023-04-13T08:56:03.390Z,4.10
2023-04-13T08:57:03.373Z,4.00
2023-04-13T08:58:03.350Z,4.20
2023-04-13T08:59:03.332Z,3.60
2023-04-13T09:00:03.348Z,4.60
2023-04-13T09:01:03.325Z,4.30
2023-04-13T09:02:03.328Z,3.90
2023-04-13T09:03:06.122Z,4.90
2023-04-13T09:04:04.428Z,2.70
2023-04-13T09:05:03.353Z,3.70
2023-04-13T09:06:03.198Z,2.70
2023-04-13T09:07:03.169Z,3.00
2023-04-13T09:08:03.153Z,3.70
2023-04-13T09:09:03.127Z,4.90
2023-04-13T09:10:03.134Z,3.30
2023-04-13T09:11:03.085Z,2.80
2023-04-13T09:12:03.110Z,6.00
2023-04-13T09:13:03.068Z,4.10
2023-04-13T09:14:03.039Z,3.50
2023-04-13T09:15:03.039Z,5.30
2023-04-13T09:16:02.989Z,2.50
2023-04-13T09:17:05.604Z,5.10
2023-04-13T09:18:02.974Z,3.50
2023-04-13T09:19:02.921Z,3.30
2023-04-13T09:20:02.938Z,3.50
2023-04-13T09:21:02.909Z,3.10
2023-04-13T09:22:02.863Z,4.00
2023-04-13T09:23:04.915Z,2.70
2023-04-13T09:24:03.823Z,2.60
2023-04-13T09:25:02.832Z,2.20
2023-04-13T09:26:02.810Z,2.40
2023-04-13T09:27:02.769Z,3.70
2023-04-13T09:28:02.746Z,3.10
2023-04-13T09:29:02.746Z,3.10
2023-04-13T09:30:02.729Z,3.50
2023-04-13T09:31:02.728Z,3.00
2023-04-13T09:32:02.665Z,4.50
2023-04-13T09:33:02.741Z,4.40
2023-04-13T09:34:02.627Z,5.20
2023-04-13T09:35:02.636Z,3.20
2023-04-13T09:36:02.596Z,5.50
2023-04-13T09:37:02.581Z,3.00
2023-04-13T09:38:02.550Z,3.00
2023-04-13T09:39:02.842Z,4.10
2023-04-13T09:40:02.528Z,3.40
2023-04-13T09:41:02.492Z,4.20
2023-04-13T09:42:02.475Z,3.40
2023-04-13T09:43:02.531Z,4.30
2023-04-13T09:44:02.437Z,4.50
2023-04-13T09:45:02.465Z,4.40
2023-04-13T09:46:02.416Z,2.20
2023-04-13T09:47:02.425Z,3.90
2023-04-13T09:48:02.491Z,4.30
2023-04-13T09:49:02.652Z,2.00
2023-04-13T09:50:02.357Z,3.60
2023-04-13T09:51:02.320Z,2.40
2023-04-13T09:52:02.287Z,2.60
2023-04-13T09:53:02.271Z,3.00
2023-04-13T09:54:02.256Z,2.50
2023-04-13T09:55:02.278Z,4.10
2023-04-13T09:56:02.239Z,3.60
2023-04-13T09:57:02.201Z,3.70
2023-04-13T09:58:02.186Z,4.70
2023-04-13T09:59:02.167Z,3.40
2023-04-13T10:00:02.290Z,1.90
2023-04-13T10:01:02.182Z,3.70
2023-04-13T10:02:02.251Z,4.30
2023-04-13T10:03:02.160Z,4.80
2023-04-13T10:04:02.190Z,2.80
2023-04-13T10:05:02.174Z,5.30
2023-04-13T10:06:02.219Z,4.70
2023-04-13T10:07:02.074Z,3.00
2023-04-13T10:08:03.025Z,2.30
2023-04-13T10:09:01.993Z,2.40
2023-04-13T10:10:02.000Z,3.40
2023-04-13T10:11:01.971Z,3.10
2023-04-13T10:12:01.935Z,1.80
2023-04-13T10:13:01.939Z,1.50
2023-04-13T10:14:02.084Z,3.00
2023-04-13T10:15:01.912Z,0.70
2023-04-13T10:16:04.011Z,1.90
2023-04-13T10:17:01.859Z,2.50
2023-04-13T10:18:01.888Z,3.00
2023-04-13T10:19:02.043Z,1.60
2023-04-13T10:20:01.821Z,1.40
2023-04-13T10:21:01.773Z,1.00
2023-04-13T10:22:01.748Z,1.60
2023-04-13T10:23:01.730Z,1.70
2023-04-13T10:24:01.997Z,1.30
2023-04-13T10:25:01.731Z,1.90
2023-04-13T10:26:01.678Z,1.90
2023-04-13T10:27:01.670Z,1.90
2023-04-13T10:28:01.625Z,0.60
2023-04-13T10:29:01.599Z,0.60
2023-04-13T10:30:01.610Z,1.70
2023-04-13T10:31:01.567Z,1.20
2023-04-13T10:32:01.672Z,2.40
2023-04-13T10:33:01.550Z,2.90
2023-04-13T10:34:01.675Z,1.20
2023-04-13T10:35:01.509Z,1.40
2023-04-13T10:36:01.476Z,2.70
2023-04-13T10:37:01.444Z,1.40
2023-04-13T10:38:01.423Z,1.20
2023-04-13T10:39:01.613Z,0.90
2023-04-13T10:40:01.411Z,0.70
2023-04-13T10:41:01.509Z,2.10
2023-04-13T10:42:01.342Z,2.70
2023-04-13T10:43:01.314Z,1.00
2023-04-13T10:44:01.299Z,1.40
2023-04-13T10:45:01.307Z,1.40
2023-04-13T10:46:01.250Z,1.40
2023-04-13T10:47:01.260Z,1.00
2023-04-13T10:48:01.284Z,1.80
2023-04-13T10:49:01.387Z,0.90
2023-04-13T10:50:01.783Z,0.80
2023-04-13T10:51:01.137Z,0.70
2023-04-13T10:52:01.130Z,1.30
2023-04-13T10:53:01.103Z,0.90
2023-04-13T10:54:01.085Z,0.70
2023-04-13T10:55:01.092Z,1.30
2023-04-13T10:56:01.031Z,1.20
2023-04-13T10:57:02.076Z,1.30
2023-04-13T10:58:01.012Z,0.90
2023-04-13T10:59:01.118Z,0.80
2023-04-13T11:00:00.991Z,0.80
2023-04-13T11:01:00.946Z,2.10
2023-04-13T11:02:01.014Z,1.10
2023-04-13T11:03:01.023Z,0.90
2023-04-13T11:04:05.099Z,1.60
2023-04-13T11:05:03.051Z,0.80
2023-04-13T11:06:00.837Z,1.10
2023-04-13T11:07:00.805Z,0.90
2023-04-13T11:08:00.818Z,0.30
2023-04-13T11:09:00.782Z,1.30
2023-04-13T11:10:04.027Z,1.00
2023-04-13T11:11:01.732Z,0.70
2023-04-13T11:12:00.707Z,0.40
2023-04-13T11:13:00.683Z,1.10
2023-04-13T11:14:00.724Z,0.80
2023-04-13T11:15:00.657Z,1.10
2023-04-13T11:16:01.658Z,1.10
2023-04-13T11:17:00.606Z,0.40
2023-04-13T11:18:00.608Z,1.60
2023-04-13T11:19:00.835Z,0.50
2023-04-13T11:20:00.533Z,0.40
2023-04-13T11:21:00.515Z,1.30
2023-04-13T11:22:00.489Z,0.50
2023-04-13T11:23:00.478Z,0.40
2023-04-13T11:24:00.471Z,0.80
2023-04-13T11:25:00.448Z,1.20
2023-04-13T11:26:00.409Z,0.70
2023-04-13T11:27:00.385Z,0.80
2023-04-13T11:28:00.384Z,1.10
2023-04-13T11:29:00.484Z,0.50
2023-04-13T11:30:00.348Z,1.00
2023-04-13T11:31:00.290Z,0.90
2023-04-13T11:32:00.330Z,0.70
2023-04-13T11:33:00.347Z,1.00
2023-04-13T11:34:00.454Z,1.70
2023-04-13T11:35:00.207Z,1.10
2023-04-13T11:36:00.307Z,0.60
2023-04-13T11:37:00.158Z,0.80
2023-04-13T11:38:00.156Z,1.30
2023-04-13T11:39:00.484Z,1.30
2023-04-13T11:40:00.156Z,0.50
2023-04-13T11:41:12.592Z,1.10
2023-04-13T11:42:02.088Z,0.40
2023-04-13T11:43:00.036Z,0.70
2023-04-13T11:44:00.038Z,1.00
2023-04-13T11:45:00.881Z,0.70
2023-04-13T11:46:00.012Z,0.70
2023-04-13T11:46:59.968Z,0.70
2023-04-13T11:48:00.009Z,0.30
2023-04-13T11:49:00.024Z,1.00
2023-04-13T11:49:59.879Z,0.40
2023-04-13T11:50:59.900Z,0.60
2023-04-13T11:51:59.837Z,0.70
2023-04-13T11:52:59.813Z,1.00
2023-04-13T11:53:59.800Z,1.10
2023-04-13T11:55:07.440Z,1.20
2023-04-13T11:56:00.778Z,1.20
2023-04-13T11:56:59.733Z,0.80
2023-04-13T11:57:59.709Z,1.10
2023-04-13T11:58:59.892Z,0.40
2023-04-13T11:59:59.667Z,0.40
2023-04-13T12:01:03.179Z,1.00
2023-04-13T12:02:03.206Z,1.00
2023-04-13T12:03:02.995Z,0.50
2023-04-13T12:04:12.919Z,2.10
2023-04-13T12:05:01.792Z,0.90
2023-04-13T12:05:59.663Z,1.10
2023-04-13T12:07:00.054Z,0.80
2023-04-13T12:08:00.547Z,1.10
2023-04-13T12:09:09.009Z,0.50
2023-04-13T12:10:06.255Z,1.10
2023-04-13T12:11:25.098Z,1.50
2023-04-13T12:12:39.724Z,1.30
2023-04-13T12:14:09.970Z,1.50
2023-04-13T12:15:15.443Z,1.10
2023-04-13T12:17:06.158Z,1.80
2023-04-13T12:18:02.778Z,1.70
2023-04-13T12:19:02.643Z,1.60
2023-04-13T12:20:00.557Z,0.60
2023-04-13T12:21:01.111Z,1.30
2023-04-13T12:22:00.435Z,0.90
2023-04-13T12:23:12.444Z,1.20
2023-04-13T12:24:01.508Z,2.00
2023-04-13T12:24:59.470Z,1.30
2023-04-13T12:25:59.167Z,0.70
2023-04-13T12:27:17.812Z,0.70
2023-04-13T12:28:01.101Z,1.10
2023-04-13T12:28:59.266Z,1.00
2023-04-13T12:29:59.083Z,1.70
2023-04-13T12:30:59.104Z,0.90
2023-04-13T12:31:59.098Z,1.00
2023-04-13T12:32:59.009Z,1.80
2023-04-13T12:33:59.118Z,1.20
2023-04-13T12:34:58.941Z,1.20
2023-04-13T12:35:58.947Z,2.50
2023-04-13T12:36:58.915Z,1.60
2023-04-13T12:37:58.877Z,2.10
2023-04-13T12:38:58.967Z,2.60
2023-04-13T12:39:58.834Z,2.40
2023-04-13T12:40:58.844Z,2.30
2023-04-13T12:41:58.806Z,1.70
2023-04-13T12:42:58.768Z,2.50
2023-04-13T12:43:58.754Z,2.50
2023-04-13T12:44:58.715Z,2.40
2023-04-13T12:45:59.732Z,2.00
2023-04-13T12:46:58.715Z,3.70
2023-04-13T12:47:58.737Z,3.30
2023-04-13T12:48:58.960Z,3.10
2023-04-13T12:49:58.623Z,4.20
2023-04-13T12:50:58.640Z,3.70
2023-04-13T12:51:58.573Z,2.60
2023-04-13T12:52:58.564Z,3.10
2023-04-13T12:53:58.529Z,3.30
2023-04-13T12:54:58.511Z,3.30
2023-04-13T12:55:58.511Z,4.20
2023-04-13T12:56:58.462Z,4.40
2023-04-13T12:57:58.436Z,4.70
2023-04-13T12:58:58.608Z,3.40
2023-04-13T12:59:59.393Z,3.30
2023-04-13T13:00:58.412Z,3.80
2023-04-13T13:01:58.378Z,3.30
2023-04-13T13:03:12.397Z,4.00
2023-04-13T13:04:00.458Z,3.90
2023-04-13T13:04:58.333Z,6.50
2023-04-13T13:05:58.288Z,8.70
2023-04-13T13:06:58.249Z,6.60
2023-04-13T13:07:58.218Z,11.50
2023-04-13T13:08:58.532Z,3.40
2023-04-13T13:09:58.172Z,3.70
2023-04-13T13:10:59.212Z,1.60
2023-04-13T13:11:58.155Z,2.90
2023-04-13T13:12:58.118Z,2.10
2023-04-13T13:13:58.095Z,2.30
2023-04-13T13:14:58.072Z,2.10
2023-04-13T13:15:58.082Z,2.90
2023-04-13T13:16:58.124Z,2.80